sensor_id;sensor_type;location;lat;lon;timestamp;P1;durP1;ratioP1;P2;durP2;ratioP2
16407;SDS011;8313;49.894;8.084;2022-09-19T00:00:41;1.70;;;0.77;;
16407;SDS011;8313;49.894;8.084;2022-09-19T00:03:08;0.63;;;0.60;;
16407;SDS011;8313;49.894;8.084;2022-09-19T00:05:38;4.20;;;0.70;;
16407;SDS011;8313;49.894;8.084;2022-09-19T00:08:06;0.73;;;0.60;;
16407;SDS011;8313;49.894;8.084;2022-09-19T00:10:36;1.47;;;0.70;;
16407;SDS011;8313;49.894;8.084;2022-09-19T00:13:04;0.67;;;0.67;;
16407;SDS011;8313;49.894;8.084;2022-09-19T00:15:32;1.50;;;0.80;;
16407;SDS011;8313;49.894;8.084;2022-09-19T00:17:59;0.83;;;0.63;;
16407;SDS011;8313;49.894;8.084;2022-09-19T00:20:26;0.93;;;0.60;;
16407;SDS011;8313;49.894;8.084;2022-09-19T00:22:51;3.60;;;0.97;;
16407;SDS011;8313;49.894;8.084;2022-09-19T00:25:35;1.90;;;1.00;;
16407;SDS011;8313;49.894;8.084;2022-09-19T00:28:01;1.77;;;1.30;;
16407;SDS011;8313;49.894;8.084;2022-09-19T00:30:27;1.47;;;0.90;;
16407;SDS011;8313;49.894;8.084;2022-09-19T00:32:52;1.00;;;0.90;;
16407;SDS011;8313;49.894;8.084;2022-09-19T00:35:18;4.97;;;1.40;;
16407;SDS011;8313;49.894;8.084;2022-09-19T00:37:45;7.40;;;0.80;;
16407;SDS011;8313;49.894;8.084;2022-09-19T00:40:11;1.00;;;0.77;;
16407;SDS011;8313;49.894;8.084;2022-09-19T00:42:37;0.60;;;0.60;;
16407;SDS011;8313;49.894;8.084;2022-09-19T00:45:12;0.60;;;0.40;;
16407;SDS011;8313;49.894;8.084;2022-09-19T00:47:42;0.57;;;0.53;;
16407;SDS011;8313;49.894;8.084;2022-09-19T00:50:22;0.60;;;0.60;;
16407;SDS011;8313;49.894;8.084;2022-09-19T00:53:07;1.47;;;0.60;;
16407;SDS011;8313;49.894;8.084;2022-09-19T00:55:37;0.50;;;0.50;;
16407;SDS011;8313;49.894;8.084;2022-09-19T01:00:36;3.70;;;0.50;;
16407;SDS011;8313;49.894;8.084;2022-09-19T01:03:03;0.60;;;0.60;;
16407;SDS011;8313;49.894;8.084;2022-09-19T01:05:43;6.80;;;0.67;;
16407;SDS011;8313;49.894;8.084;2022-09-19T01:16:41;0.90;;;0.50;;
16407;SDS011;8313;49.894;8.084;2022-09-19T01:24:49;0.40;;;0.40;;
16407;SDS011;8313;49.894;8.084;2022-09-19T01:30:18;0.70;;;0.50;;
16407;SDS011;8313;49.894;8.084;2022-09-19T01:32:55;2.00;;;0.70;;
16407;SDS011;8313;49.894;8.084;2022-09-19T01:35:32;1.23;;;0.70;;
16407;SDS011;8313;49.894;8.084;2022-09-19T01:40:41;2.30;;;0.50;;
16407;SDS011;8313;49.894;8.084;2022-09-19T01:43:13;2.40;;;0.70;;
16407;SDS011;8313;49.894;8.084;2022-09-19T01:45:42;3.73;;;1.07;;
16407;SDS011;8313;49.894;8.084;2022-09-19T01:53:28;3.50;;;1.43;;
16407;SDS011;8313;49.894;8.084;2022-09-19T02:01:49;1.63;;;0.87;;
16407;SDS011;8313;49.894;8.084;2022-09-19T02:04:31;1.00;;;0.93;;
16407;SDS011;8313;49.894;8.084;2022-09-19T02:07:04;1.87;;;0.70;;
16407;SDS011;8313;49.894;8.084;2022-09-19T02:09:58;7.63;;;0.90;;
16407;SDS011;8313;49.894;8.084;2022-09-19T02:12:35;0.57;;;0.57;;
16407;SDS011;8313;49.894;8.084;2022-09-19T02:15:09;2.40;;;0.93;;
16407;SDS011;8313;49.894;8.084;2022-09-19T02:17:43;0.63;;;0.60;;
16407;SDS011;8313;49.894;8.084;2022-09-19T02:20:17;3.97;;;1.20;;
16407;SDS011;8313;49.894;8.084;2022-09-19T02:23:15;1.30;;;0.80;;
16407;SDS011;8313;49.894;8.084;2022-09-19T02:25:46;4.43;;;0.83;;
16407;SDS011;8313;49.894;8.084;2022-09-19T02:28:17;1.87;;;0.77;;
16407;SDS011;8313;49.894;8.084;2022-09-19T02:30:49;2.73;;;0.90;;
16407;SDS011;8313;49.894;8.084;2022-09-19T02:33:15;1.90;;;0.93;;
16407;SDS011;8313;49.894;8.084;2022-09-19T02:41:25;1.40;;;1.20;;
16407;SDS011;8313;49.894;8.084;2022-09-19T02:46:39;1.03;;;1.00;;
16407;SDS011;8313;49.894;8.084;2022-09-19T02:49:14;2.80;;;1.07;;
16407;SDS011;8313;49.894;8.084;2022-09-19T02:52:24;1.23;;;1.10;;
16407;SDS011;8313;49.894;8.084;2022-09-19T02:55:01;5.03;;;1.13;;
16407;SDS011;8313;49.894;8.084;2022-09-19T02:57:39;1.37;;;0.90;;
16407;SDS011;8313;49.894;8.084;2022-09-19T03:00:13;2.03;;;1.00;;
16407;SDS011;8313;49.894;8.084;2022-09-19T03:02:41;4.03;;;1.33;;
16407;SDS011;8313;49.894;8.084;2022-09-19T03:05:28;2.40;;;1.47;;
16407;SDS011;8313;49.894;8.084;2022-09-19T03:08:02;1.37;;;1.10;;
16407;SDS011;8313;49.894;8.084;2022-09-19T03:10:33;2.63;;;1.00;;
16407;SDS011;8313;49.894;8.084;2022-09-19T03:13:11;1.93;;;1.10;;
16407;SDS011;8313;49.894;8.084;2022-09-19T03:18:13;4.77;;;1.10;;
16407;SDS011;8313;49.894;8.084;2022-09-19T03:20:49;1.10;;;0.93;;
16407;SDS011;8313;49.894;8.084;2022-09-19T03:23:20;1.20;;;0.73;;
16407;SDS011;8313;49.894;8.084;2022-09-19T03:25:51;2.90;;;1.30;;
16407;SDS011;8313;49.894;8.084;2022-09-19T03:28:17;2.23;;;1.10;;
16407;SDS011;8313;49.894;8.084;2022-09-19T03:30:46;1.20;;;1.10;;
16407;SDS011;8313;49.894;8.084;2022-09-19T03:33:12;2.67;;;1.17;;
16407;SDS011;8313;49.894;8.084;2022-09-19T03:35:43;1.23;;;1.10;;
16407;SDS011;8313;49.894;8.084;2022-09-19T03:38:12;6.10;;;1.53;;
16407;SDS011;8313;49.894;8.084;2022-09-19T03:40:38;1.20;;;1.10;;
16407;SDS011;8313;49.894;8.084;2022-09-19T03:43:05;2.63;;;1.13;;
16407;SDS011;8313;49.894;8.084;2022-09-19T03:45:31;2.07;;;0.97;;
16407;SDS011;8313;49.894;8.084;2022-09-19T03:47:57;2.30;;;1.27;;
16407;SDS011;8313;49.894;8.084;2022-09-19T03:50:22;5.70;;;1.10;;
16407;SDS011;8313;49.894;8.084;2022-09-19T03:53:03;1.60;;;1.00;;
16407;SDS011;8313;49.894;8.084;2022-09-19T03:55:32;1.97;;;1.23;;
16407;SDS011;8313;49.894;8.084;2022-09-19T03:58:03;2.80;;;1.13;;
16407;SDS011;8313;49.894;8.084;2022-09-19T04:00:29;2.33;;;1.07;;
16407;SDS011;8313;49.894;8.084;2022-09-19T04:02:55;2.30;;;1.37;;
16407;SDS011;8313;49.894;8.084;2022-09-19T04:05:21;2.30;;;1.00;;
16407;SDS011;8313;49.894;8.084;2022-09-19T04:07:47;2.93;;;1.10;;
16407;SDS011;8313;49.894;8.084;2022-09-19T04:10:13;1.73;;;1.20;;
16407;SDS011;8313;49.894;8.084;2022-09-19T04:12:40;2.10;;;1.10;;
16407;SDS011;8313;49.894;8.084;2022-09-19T04:15:07;5.33;;;1.90;;
16407;SDS011;8313;49.894;8.084;2022-09-19T04:17:33;3.23;;;1.50;;
16407;SDS011;8313;49.894;8.084;2022-09-19T04:20:04;5.00;;;1.27;;
16407;SDS011;8313;49.894;8.084;2022-09-19T04:22:53;1.23;;;1.13;;
16407;SDS011;8313;49.894;8.084;2022-09-19T04:25:25;4.30;;;1.33;;
16407;SDS011;8313;49.894;8.084;2022-09-19T04:28:02;5.27;;;1.50;;
16407;SDS011;8313;49.894;8.084;2022-09-19T04:30:33;4.10;;;1.50;;
16407;SDS011;8313;49.894;8.084;2022-09-19T04:33:01;5.13;;;1.43;;
16407;SDS011;8313;49.894;8.084;2022-09-19T04:35:32;8.97;;;1.30;;
16407;SDS011;8313;49.894;8.084;2022-09-19T04:38:08;3.13;;;1.33;;
16407;SDS011;8313;49.894;8.084;2022-09-19T04:40:44;3.90;;;1.30;;
16407;SDS011;8313;49.894;8.084;2022-09-19T04:43:13;1.27;;;1.10;;
16407;SDS011;8313;49.894;8.084;2022-09-19T04:45:48;3.10;;;1.33;;
16407;SDS011;8313;49.894;8.084;2022-09-19T04:48:19;5.73;;;1.40;;
16407;SDS011;8313;49.894;8.084;2022-09-19T04:50:48;5.30;;;1.70;;
16407;SDS011;8313;49.894;8.084;2022-09-19T04:53:16;4.17;;;1.20;;
16407;SDS011;8313;49.894;8.084;2022-09-19T04:55:47;3.13;;;1.53;;
16407;SDS011;8313;49.894;8.084;2022-09-19T04:58:14;1.80;;;1.23;;
16407;SDS011;8313;49.894;8.084;2022-09-19T05:00:44;5.60;;;1.50;;
16407;SDS011;8313;49.894;8.084;2022-09-19T05:03:19;3.37;;;1.10;;
16407;SDS011;8313;49.894;8.084;2022-09-19T05:05:51;4.70;;;1.57;;
16407;SDS011;8313;49.894;8.084;2022-09-19T05:08:38;2.13;;;1.60;;
16407;SDS011;8313;49.894;8.084;2022-09-19T05:11:11;2.50;;;1.00;;
16407;SDS011;8313;49.894;8.084;2022-09-19T05:13:38;3.33;;;2.00;;
16407;SDS011;8313;49.894;8.084;2022-09-19T05:16:05;4.27;;;2.00;;
16407;SDS011;8313;49.894;8.084;2022-09-19T05:18:34;3.10;;;1.80;;
16407;SDS011;8313;49.894;8.084;2022-09-19T05:21:04;3.23;;;1.50;;
16407;SDS011;8313;49.894;8.084;2022-09-19T05:23:32;3.33;;;1.40;;
16407;SDS011;8313;49.894;8.084;2022-09-19T05:26:04;6.63;;;1.70;;
16407;SDS011;8313;49.894;8.084;2022-09-19T05:28:32;3.23;;;1.67;;
16407;SDS011;8313;49.894;8.084;2022-09-19T05:30:59;3.73;;;1.40;;
16407;SDS011;8313;49.894;8.084;2022-09-19T05:33:31;3.17;;;1.80;;
16407;SDS011;8313;49.894;8.084;2022-09-19T05:35:58;1.23;;;1.10;;
16407;SDS011;8313;49.894;8.084;2022-09-19T05:38:44;2.73;;;1.63;;
16407;SDS011;8313;49.894;8.084;2022-09-19T05:41:30;6.80;;;1.60;;
16407;SDS011;8313;49.894;8.084;2022-09-19T05:44:00;4.33;;;1.30;;
16407;SDS011;8313;49.894;8.084;2022-09-19T05:46:26;4.93;;;1.57;;
16407;SDS011;8313;49.894;8.084;2022-09-19T05:48:53;4.13;;;1.40;;
16407;SDS011;8313;49.894;8.084;2022-09-19T05:51:19;1.30;;;1.20;;
16407;SDS011;8313;49.894;8.084;2022-09-19T05:53:45;2.90;;;1.30;;
16407;SDS011;8313;49.894;8.084;2022-09-19T05:56:38;1.53;;;1.40;;
16407;SDS011;8313;49.894;8.084;2022-09-19T05:59:06;2.30;;;1.53;;
16407;SDS011;8313;49.894;8.084;2022-09-19T06:01:34;1.97;;;1.50;;
16407;SDS011;8313;49.894;8.084;2022-09-19T06:03:59;2.77;;;1.40;;
16407;SDS011;8313;49.894;8.084;2022-09-19T06:06:28;3.00;;;1.80;;
16407;SDS011;8313;49.894;8.084;2022-09-19T06:08:55;4.63;;;1.60;;
16407;SDS011;8313;49.894;8.084;2022-09-19T06:11:22;5.93;;;2.40;;
16407;SDS011;8313;49.894;8.084;2022-09-19T06:13:50;3.37;;;1.70;;
16407;SDS011;8313;49.894;8.084;2022-09-19T06:16:34;3.70;;;2.10;;
16407;SDS011;8313;49.894;8.084;2022-09-19T06:19:27;5.03;;;1.43;;
16407;SDS011;8313;49.894;8.084;2022-09-19T06:22:02;1.93;;;1.47;;
16407;SDS011;8313;49.894;8.084;2022-09-19T06:24:30;2.57;;;1.40;;
16407;SDS011;8313;49.894;8.084;2022-09-19T06:26:56;2.10;;;1.80;;
16407;SDS011;8313;49.894;8.084;2022-09-19T06:29:24;2.67;;;1.70;;
16407;SDS011;8313;49.894;8.084;2022-09-19T06:32:08;1.73;;;1.63;;
16407;SDS011;8313;49.894;8.084;2022-09-19T06:34:39;2.50;;;1.70;;
16407;SDS011;8313;49.894;8.084;2022-09-19T06:37:05;3.80;;;2.07;;
16407;SDS011;8313;49.894;8.084;2022-09-19T06:39:32;1.67;;;1.57;;
16407;SDS011;8313;49.894;8.084;2022-09-19T06:42:19;11.47;;;1.97;;
16407;SDS011;8313;49.894;8.084;2022-09-19T06:45:00;2.20;;;1.50;;
16407;SDS011;8313;49.894;8.084;2022-09-19T06:47:44;3.77;;;2.30;;
16407;SDS011;8313;49.894;8.084;2022-09-19T06:50:37;2.00;;;1.27;;
16407;SDS011;8313;49.894;8.084;2022-09-19T06:53:07;5.00;;;2.00;;
16407;SDS011;8313;49.894;8.084;2022-09-19T06:55:34;2.83;;;1.37;;
16407;SDS011;8313;49.894;8.084;2022-09-19T06:58:04;3.07;;;1.60;;
16407;SDS011;8313;49.894;8.084;2022-09-19T07:00:32;2.57;;;1.90;;
16407;SDS011;8313;49.894;8.084;2022-09-19T07:03:03;3.10;;;1.33;;
16407;SDS011;8313;49.894;8.084;2022-09-19T07:05:33;5.13;;;1.93;;
16407;SDS011;8313;49.894;8.084;2022-09-19T07:08:20;10.10;;;2.40;;
16407;SDS011;8313;49.894;8.084;2022-09-19T07:10:47;2.47;;;1.47;;
16407;SDS011;8313;49.894;8.084;2022-09-19T07:13:13;3.80;;;1.93;;
16407;SDS011;8313;49.894;8.084;2022-09-19T07:15:41;2.00;;;1.57;;
16407;SDS011;8313;49.894;8.084;2022-09-19T07:18:08;6.70;;;1.77;;
16407;SDS011;8313;49.894;8.084;2022-09-19T07:20:37;5.43;;;1.83;;
16407;SDS011;8313;49.894;8.084;2022-09-19T07:23:14;2.37;;;1.97;;
16407;SDS011;8313;49.894;8.084;2022-09-19T07:26:02;2.93;;;1.93;;
16407;SDS011;8313;49.894;8.084;2022-09-19T07:28:28;5.90;;;1.47;;
16407;SDS011;8313;49.894;8.084;2022-09-19T07:30:59;2.90;;;1.77;;
16407;SDS011;8313;49.894;8.084;2022-09-19T07:33:26;4.40;;;1.97;;
16407;SDS011;8313;49.894;8.084;2022-09-19T07:35:53;3.60;;;2.17;;
16407;SDS011;8313;49.894;8.084;2022-09-19T07:38:20;2.63;;;1.57;;
16407;SDS011;8313;49.894;8.084;2022-09-19T07:41:06;2.50;;;2.20;;
16407;SDS011;8313;49.894;8.084;2022-09-19T07:43:48;2.80;;;1.90;;
16407;SDS011;8313;49.894;8.084;2022-09-19T07:46:32;3.13;;;1.33;;
16407;SDS011;8313;49.894;8.084;2022-09-19T07:49:24;2.20;;;1.80;;
16407;SDS011;8313;49.894;8.084;2022-09-19T07:52:10;2.87;;;2.00;;
16407;SDS011;8313;49.894;8.084;2022-09-19T07:54:36;2.10;;;1.90;;
16407;SDS011;8313;49.894;8.084;2022-09-19T07:57:02;1.50;;;1.33;;
16407;SDS011;8313;49.894;8.084;2022-09-19T07:59:27;2.70;;;1.73;;
16407;SDS011;8313;49.894;8.084;2022-09-19T08:01:57;3.90;;;1.90;;
16407;SDS011;8313;49.894;8.084;2022-09-19T08:04:31;1.67;;;1.53;;
16407;SDS011;8313;49.894;8.084;2022-09-19T08:06:58;7.27;;;1.90;;
16407;SDS011;8313;49.894;8.084;2022-09-19T08:09:24;4.97;;;1.90;;
16407;SDS011;8313;49.894;8.084;2022-09-19T08:12:05;2.43;;;1.90;;
16407;SDS011;8313;49.894;8.084;2022-09-19T08:14:37;2.23;;;1.80;;
16407;SDS011;8313;49.894;8.084;2022-09-19T08:17:03;2.53;;;2.33;;
16407;SDS011;8313;49.894;8.084;2022-09-19T08:19:29;5.40;;;2.50;;
16407;SDS011;8313;49.894;8.084;2022-09-19T08:21:58;5.80;;;2.43;;
16407;SDS011;8313;49.894;8.084;2022-09-19T08:24:26;4.53;;;1.77;;
16407;SDS011;8313;49.894;8.084;2022-09-19T08:26:57;2.80;;;2.27;;
16407;SDS011;8313;49.894;8.084;2022-09-19T08:29:24;2.70;;;1.77;;
16407;SDS011;8313;49.894;8.084;2022-09-19T08:31:59;3.57;;;2.30;;
16407;SDS011;8313;49.894;8.084;2022-09-19T08:34:25;3.50;;;2.00;;
16407;SDS011;8313;49.894;8.084;2022-09-19T08:36:52;4.97;;;2.60;;
16407;SDS011;8313;49.894;8.084;2022-09-19T08:39:24;4.60;;;2.10;;
16407;SDS011;8313;49.894;8.084;2022-09-19T08:42:08;3.50;;;1.83;;
16407;SDS011;8313;49.894;8.084;2022-09-19T08:44:47;7.50;;;3.53;;
16407;SDS011;8313;49.894;8.084;2022-09-19T08:47:23;2.20;;;2.00;;
16407;SDS011;8313;49.894;8.084;2022-09-19T08:52:26;3.43;;;1.93;;
16407;SDS011;8313;49.894;8.084;2022-09-19T08:54:54;3.70;;;1.50;;
16407;SDS011;8313;49.894;8.084;2022-09-19T08:57:29;6.27;;;1.63;;
16407;SDS011;8313;49.894;8.084;2022-09-19T09:00:06;2.83;;;1.90;;
16407;SDS011;8313;49.894;8.084;2022-09-19T09:02:45;3.40;;;1.60;;
16407;SDS011;8313;49.894;8.084;2022-09-19T09:05:15;4.43;;;1.60;;
16407;SDS011;8313;49.894;8.084;2022-09-19T09:13:42;2.60;;;2.30;;
16407;SDS011;8313;49.894;8.084;2022-09-19T09:18:50;2.77;;;1.80;;
16407;SDS011;8313;49.894;8.084;2022-09-19T09:24:06;5.90;;;1.87;;
16407;SDS011;8313;49.894;8.084;2022-09-19T09:27:16;2.07;;;1.87;;
16407;SDS011;8313;49.894;8.084;2022-09-19T09:29:46;6.90;;;1.90;;
16407;SDS011;8313;49.894;8.084;2022-09-19T09:35:02;2.80;;;1.90;;
16407;SDS011;8313;49.894;8.084;2022-09-19T09:40:25;5.03;;;1.83;;
16407;SDS011;8313;49.894;8.084;2022-09-19T09:43:17;5.07;;;1.93;;
16407;SDS011;8313;49.894;8.084;2022-09-19T09:45:48;3.83;;;1.80;;
16407;SDS011;8313;49.894;8.084;2022-09-19T09:48:25;2.93;;;1.60;;
16407;SDS011;8313;49.894;8.084;2022-09-19T09:54:02;3.07;;;1.80;;
16407;SDS011;8313;49.894;8.084;2022-09-19T10:05:55;6.03;;;1.87;;
16407;SDS011;8313;49.894;8.084;2022-09-19T10:08:44;8.83;;;2.03;;
16407;SDS011;8313;49.894;8.084;2022-09-19T10:11:30;8.53;;;2.50;;
16407;SDS011;8313;49.894;8.084;2022-09-19T10:14:16;2.63;;;1.90;;
16407;SDS011;8313;49.894;8.084;2022-09-19T10:16:51;3.00;;;1.53;;
16407;SDS011;8313;49.894;8.084;2022-09-19T10:19:40;7.03;;;2.37;;
16407;SDS011;8313;49.894;8.084;2022-09-19T10:22:15;2.40;;;2.10;;
16407;SDS011;8313;49.894;8.084;2022-09-19T10:24:50;8.00;;;2.30;;
16407;SDS011;8313;49.894;8.084;2022-09-19T10:30:02;3.60;;;2.03;;
16407;SDS011;8313;49.894;8.084;2022-09-19T10:32:51;3.33;;;1.77;;
16407;SDS011;8313;49.894;8.084;2022-09-19T10:35:37;3.60;;;2.20;;
16407;SDS011;8313;49.894;8.084;2022-09-19T10:38:14;3.07;;;2.20;;
16407;SDS011;8313;49.894;8.084;2022-09-19T10:40:53;1.83;;;1.67;;
16407;SDS011;8313;49.894;8.084;2022-09-19T10:43:27;2.23;;;1.67;;
16407;SDS011;8313;49.894;8.084;2022-09-19T10:46:00;1.70;;;1.60;;
16407;SDS011;8313;49.894;8.084;2022-09-19T10:48:35;2.20;;;2.00;;
16407;SDS011;8313;49.894;8.084;2022-09-19T10:51:10;1.77;;;1.20;;
16407;SDS011;8313;49.894;8.084;2022-09-19T10:53:40;4.10;;;1.40;;
16407;SDS011;8313;49.894;8.084;2022-09-19T10:56:22;4.90;;;1.50;;
16407;SDS011;8313;49.894;8.084;2022-09-19T11:04:34;3.40;;;2.10;;
16407;SDS011;8313;49.894;8.084;2022-09-19T11:07:23;5.03;;;2.10;;
16407;SDS011;8313;49.894;8.084;2022-09-19T11:09:50;6.80;;;1.90;;
16407;SDS011;8313;49.894;8.084;2022-09-19T11:12:23;2.60;;;1.77;;
16407;SDS011;8313;49.894;8.084;2022-09-19T11:14:50;2.80;;;1.47;;
16407;SDS011;8313;49.894;8.084;2022-09-19T11:20:28;2.30;;;1.33;;
16407;SDS011;8313;49.894;8.084;2022-09-19T11:23:37;1.07;;;1.07;;
16407;SDS011;8313;49.894;8.084;2022-09-19T11:26:38;7.43;;;1.87;;
16407;SDS011;8313;49.894;8.084;2022-09-19T11:29:38;3.87;;;1.57;;
16407;SDS011;8313;49.894;8.084;2022-09-19T11:32:39;2.00;;;1.10;;
16407;SDS011;8313;49.894;8.084;2022-09-19T11:36:19;1.90;;;0.97;;
16407;SDS011;8313;49.894;8.084;2022-09-19T11:39:15;1.33;;;1.17;;
16407;SDS011;8313;49.894;8.084;2022-09-19T11:41:56;3.80;;;1.53;;
16407;SDS011;8313;49.894;8.084;2022-09-19T12:09:14;5.40;;;4.00;;
16407;SDS011;8313;49.894;8.084;2022-09-19T12:11:58;5.10;;;3.40;;
16407;SDS011;8313;49.894;8.084;2022-09-19T12:14:49;9.60;;;3.50;;
16407;SDS011;8313;49.894;8.084;2022-09-19T12:17:35;11.77;;;4.50;;
16407;SDS011;8313;49.894;8.084;2022-09-19T12:22:53;16.83;;;12.00;;
16407;SDS011;8313;49.894;8.084;2022-09-19T12:25:23;14.00;;;9.53;;
16407;SDS011;8313;49.894;8.084;2022-09-19T12:30:36;8.77;;;6.20;;
16407;SDS011;8313;49.894;8.084;2022-09-19T12:33:12;6.47;;;5.00;;
16407;SDS011;8313;49.894;8.084;2022-09-19T12:38:17;4.27;;;3.00;;
16407;SDS011;8313;49.894;8.084;2022-09-19T12:52:04;46.23;;;26.90;;
16407;SDS011;8313;49.894;8.084;2022-09-19T12:54:44;18.23;;;10.73;;
16407;SDS011;8313;49.894;8.084;2022-09-19T12:57:24;5.80;;;3.77;;
16407;SDS011;8313;49.894;8.084;2022-09-19T13:00:07;6.43;;;3.20;;
16407;SDS011;8313;49.894;8.084;2022-09-19T13:02:50;2.87;;;2.30;;
16407;SDS011;8313;49.894;8.084;2022-09-19T13:05:39;1.70;;;1.33;;
16407;SDS011;8313;49.894;8.084;2022-09-19T13:08:09;1.80;;;1.33;;
16407;SDS011;8313;49.894;8.084;2022-09-19T13:10:44;2.50;;;2.10;;
16407;SDS011;8313;49.894;8.084;2022-09-19T13:16:07;5.20;;;4.30;;
16407;SDS011;8313;49.894;8.084;2022-09-19T13:18:41;5.37;;;3.57;;
16407;SDS011;8313;49.894;8.084;2022-09-19T13:21:28;3.00;;;2.47;;
16407;SDS011;8313;49.894;8.084;2022-09-19T13:24:23;1.67;;;1.33;;
16407;SDS011;8313;49.894;8.084;2022-09-19T13:27:15;2.17;;;1.17;;
16407;SDS011;8313;49.894;8.084;2022-09-19T13:29:43;3.47;;;2.30;;
16407;SDS011;8313;49.894;8.084;2022-09-19T13:40:03;4.10;;;2.10;;
16407;SDS011;8313;49.894;8.084;2022-09-19T13:47:53;4.00;;;1.53;;
16407;SDS011;8313;49.894;8.084;2022-09-19T13:50:28;2.23;;;1.60;;
16407;SDS011;8313;49.894;8.084;2022-09-19T13:53:04;6.43;;;1.70;;
16407;SDS011;8313;49.894;8.084;2022-09-19T13:55:35;4.20;;;1.67;;
16407;SDS011;8313;49.894;8.084;2022-09-19T14:03:39;33.60;;;21.17;;
16407;SDS011;8313;49.894;8.084;2022-09-19T14:08:44;26.10;;;16.10;;
16407;SDS011;8313;49.894;8.084;2022-09-19T14:11:10;27.30;;;15.80;;
16407;SDS011;8313;49.894;8.084;2022-09-19T14:13:37;32.50;;;19.00;;
16407;SDS011;8313;49.894;8.084;2022-09-19T14:19:02;38.57;;;23.27;;
16407;SDS011;8313;49.894;8.084;2022-09-19T14:21:51;17.57;;;10.47;;
16407;SDS011;8313;49.894;8.084;2022-09-19T14:26:59;8.97;;;4.80;;
16407;SDS011;8313;49.894;8.084;2022-09-19T14:29:38;4.97;;;2.97;;
16407;SDS011;8313;49.894;8.084;2022-09-19T14:35:15;2.70;;;1.87;;
16407;SDS011;8313;49.894;8.084;2022-09-19T14:49:25;1.90;;;1.47;;
16407;SDS011;8313;49.894;8.084;2022-09-19T14:54:50;0.87;;;0.87;;
16407;SDS011;8313;49.894;8.084;2022-09-19T14:57:22;1.73;;;1.63;;
16407;SDS011;8313;49.894;8.084;2022-09-19T14:59:49;2.87;;;1.20;;
16407;SDS011;8313;49.894;8.084;2022-09-19T15:02:28;3.33;;;1.20;;
16407;SDS011;8313;49.894;8.084;2022-09-19T15:05:02;3.07;;;1.30;;
16407;SDS011;8313;49.894;8.084;2022-09-19T15:07:29;2.40;;;1.40;;
16407;SDS011;8313;49.894;8.084;2022-09-19T15:09:56;1.70;;;1.33;;
16407;SDS011;8313;49.894;8.084;2022-09-19T15:12:24;2.03;;;1.40;;
16407;SDS011;8313;49.894;8.084;2022-09-19T15:14:56;0.87;;;0.87;;
16407;SDS011;8313;49.894;8.084;2022-09-19T15:17:40;2.07;;;0.90;;
16407;SDS011;8313;49.894;8.084;2022-09-19T15:22:53;2.37;;;1.80;;
16407;SDS011;8313;49.894;8.084;2022-09-19T15:27:57;4.43;;;1.40;;
16407;SDS011;8313;49.894;8.084;2022-09-19T15:33:02;3.03;;;0.93;;
16407;SDS011;8313;49.894;8.084;2022-09-19T15:35:41;3.00;;;1.20;;
16407;SDS011;8313;49.894;8.084;2022-09-19T15:38:13;1.10;;;1.10;;
16407;SDS011;8313;49.894;8.084;2022-09-19T15:40:46;1.10;;;0.90;;
16407;SDS011;8313;49.894;8.084;2022-09-19T15:43:13;0.80;;;0.80;;
16407;SDS011;8313;49.894;8.084;2022-09-19T15:45:43;5.90;;;1.67;;
16407;SDS011;8313;49.894;8.084;2022-09-19T15:48:18;1.60;;;1.07;;
16407;SDS011;8313;49.894;8.084;2022-09-19T15:50:49;2.50;;;0.83;;
16407;SDS011;8313;49.894;8.084;2022-09-19T15:53:31;0.90;;;0.90;;
16407;SDS011;8313;49.894;8.084;2022-09-19T15:56:11;1.83;;;1.00;;
16407;SDS011;8313;49.894;8.084;2022-09-19T15:58:43;0.93;;;0.93;;
16407;SDS011;8313;49.894;8.084;2022-09-19T16:01:13;4.20;;;1.53;;
16407;SDS011;8313;49.894;8.084;2022-09-19T16:03:40;4.47;;;1.10;;
16407;SDS011;8313;49.894;8.084;2022-09-19T16:09:38;0.80;;;0.77;;
16407;SDS011;8313;49.894;8.084;2022-09-19T16:14:56;1.63;;;1.00;;
16407;SDS011;8313;49.894;8.084;2022-09-19T16:17:24;1.23;;;1.00;;
16407;SDS011;8313;49.894;8.084;2022-09-19T16:19:51;1.73;;;1.10;;
16407;SDS011;8313;49.894;8.084;2022-09-19T16:22:20;0.80;;;0.80;;
16407;SDS011;8313;49.894;8.084;2022-09-19T16:24:57;1.20;;;0.90;;
16407;SDS011;8313;49.894;8.084;2022-09-19T16:27:28;1.10;;;0.90;;
16407;SDS011;8313;49.894;8.084;2022-09-19T16:29:56;2.23;;;1.20;;
16407;SDS011;8313;49.894;8.084;2022-09-19T16:32:25;1.50;;;0.97;;
16407;SDS011;8313;49.894;8.084;2022-09-19T16:34:53;3.07;;;1.60;;
16407;SDS011;8313;49.894;8.084;2022-09-19T16:37:30;4.53;;;3.37;;
16407;SDS011;8313;49.894;8.084;2022-09-19T16:39:58;1.20;;;1.10;;
16407;SDS011;8313;49.894;8.084;2022-09-19T16:42:29;1.10;;;1.10;;
16407;SDS011;8313;49.894;8.084;2022-09-19T16:45:00;2.20;;;1.13;;
16407;SDS011;8313;49.894;8.084;2022-09-19T16:47:42;2.20;;;1.20;;
16407;SDS011;8313;49.894;8.084;2022-09-19T16:50:13;1.13;;;1.00;;
16407;SDS011;8313;49.894;8.084;2022-09-19T16:52:42;2.93;;;0.90;;
16407;SDS011;8313;49.894;8.084;2022-09-19T16:55:18;1.37;;;0.90;;
16407;SDS011;8313;49.894;8.084;2022-09-19T16:57:47;1.40;;;1.30;;
16407;SDS011;8313;49.894;8.084;2022-09-19T17:00:14;1.87;;;0.90;;
16407;SDS011;8313;49.894;8.084;2022-09-19T17:02:40;1.50;;;0.73;;
16407;SDS011;8313;49.894;8.084;2022-09-19T17:05:10;1.00;;;0.90;;
16407;SDS011;8313;49.894;8.084;2022-09-19T17:07:47;1.10;;;1.00;;
16407;SDS011;8313;49.894;8.084;2022-09-19T17:10:13;2.60;;;1.60;;
16407;SDS011;8313;49.894;8.084;2022-09-19T17:12:40;1.30;;;1.20;;
16407;SDS011;8313;49.894;8.084;2022-09-19T17:18:02;1.67;;;1.00;;
16407;SDS011;8313;49.894;8.084;2022-09-19T17:20:28;4.77;;;2.03;;
16407;SDS011;8313;49.894;8.084;2022-09-19T17:22:54;3.20;;;1.30;;
16407;SDS011;8313;49.894;8.084;2022-09-19T17:25:25;2.13;;;1.43;;
16407;SDS011;8313;49.894;8.084;2022-09-19T17:28:10;1.20;;;1.03;;
16407;SDS011;8313;49.894;8.084;2022-09-19T17:30:42;4.20;;;1.40;;
16407;SDS011;8313;49.894;8.084;2022-09-19T17:33:14;5.27;;;1.40;;
16407;SDS011;8313;49.894;8.084;2022-09-19T17:35:40;1.70;;;1.20;;
16407;SDS011;8313;49.894;8.084;2022-09-19T17:38:07;2.60;;;1.30;;
16407;SDS011;8313;49.894;8.084;2022-09-19T17:40:35;2.30;;;1.57;;
16407;SDS011;8313;49.894;8.084;2022-09-19T17:43:03;1.57;;;1.47;;
16407;SDS011;8313;49.894;8.084;2022-09-19T17:45:30;4.63;;;1.63;;
16407;SDS011;8313;49.894;8.084;2022-09-19T17:47:58;2.70;;;2.17;;
16407;SDS011;8313;49.894;8.084;2022-09-19T17:50:25;2.03;;;1.27;;
16407;SDS011;8313;49.894;8.084;2022-09-19T17:52:52;4.20;;;1.53;;
16407;SDS011;8313;49.894;8.084;2022-09-19T17:55:18;2.10;;;1.10;;
16407;SDS011;8313;49.894;8.084;2022-09-19T17:57:45;7.67;;;1.80;;
16407;SDS011;8313;49.894;8.084;2022-09-19T18:00:11;7.93;;;3.77;;
16407;SDS011;8313;49.894;8.084;2022-09-19T18:02:40;3.23;;;2.93;;
16407;SDS011;8313;49.894;8.084;2022-09-19T18:05:25;6.83;;;2.50;;
16407;SDS011;8313;49.894;8.084;2022-09-19T18:07:51;2.57;;;2.30;;
16407;SDS011;8313;49.894;8.084;2022-09-19T18:10:23;1.83;;;1.60;;
16407;SDS011;8313;49.894;8.084;2022-09-19T18:12:51;4.73;;;2.93;;
16407;SDS011;8313;49.894;8.084;2022-09-19T18:15:20;70.97;;;44.40;;
16407;SDS011;8313;49.894;8.084;2022-09-19T18:17:52;47.80;;;28.20;;
16407;SDS011;8313;49.894;8.084;2022-09-19T18:20:19;12.20;;;8.50;;
16407;SDS011;8313;49.894;8.084;2022-09-19T18:22:45;11.20;;;7.13;;
16407;SDS011;8313;49.894;8.084;2022-09-19T18:25:11;5.83;;;4.60;;
16407;SDS011;8313;49.894;8.084;2022-09-19T18:27:41;9.80;;;4.13;;
16407;SDS011;8313;49.894;8.084;2022-09-19T18:30:09;7.23;;;3.30;;
16407;SDS011;8313;49.894;8.084;2022-09-19T18:32:36;4.03;;;2.37;;
16407;SDS011;8313;49.894;8.084;2022-09-19T18:35:02;2.97;;;1.80;;
16407;SDS011;8313;49.894;8.084;2022-09-19T18:37:28;2.60;;;2.03;;
16407;SDS011;8313;49.894;8.084;2022-09-19T18:39:53;2.63;;;1.73;;
16407;SDS011;8313;49.894;8.084;2022-09-19T18:42:19;1.90;;;1.80;;
16407;SDS011;8313;49.894;8.084;2022-09-19T18:44:45;8.10;;;1.80;;
16407;SDS011;8313;49.894;8.084;2022-09-19T18:47:10;1.67;;;1.30;;
16407;SDS011;8313;49.894;8.084;2022-09-19T18:49:36;2.30;;;2.20;;
16407;SDS011;8313;49.894;8.084;2022-09-19T18:52:02;4.93;;;3.27;;